createdAt,value
2018-11-26T00:01:20.247Z,5.60
2018-11-26T00:03:50.416Z,5.60
2018-11-26T00:06:20.530Z,5.60
2018-11-26T00:08:50.680Z,5.60
2018-11-26T00:11:39.128Z,5.70
2018-11-26T00:14:09.238Z,5.60
2018-11-26T00:16:39.433Z,5.70
2018-11-26T00:19:09.595Z,5.50
2018-11-26T00:21:39.702Z,5.50
2018-11-26T00:24:09.809Z,5.50
2018-11-26T00:26:39.983Z,5.50
2018-11-26T00:29:10.168Z,5.50
2018-11-26T00:31:40.281Z,5.50
2018-11-26T00:34:10.495Z,5.50
2018-11-26T00:36:40.586Z,5.50
2018-11-26T00:39:12.509Z,5.50
2018-11-26T00:41:42.640Z,5.50
2018-11-26T00:44:12.804Z,5.60
2018-11-26T00:46:42.920Z,5.60
2018-11-26T00:49:13.062Z,5.60
2018-11-26T00:51:43.208Z,5.60
2018-11-26T00:54:13.337Z,5.60
2018-11-26T00:56:43.502Z,5.50
2018-11-26T00:59:13.639Z,5.50
2018-11-26T01:01:43.767Z,5.50
2018-11-26T01:04:14.082Z,5.50
2018-11-26T01:06:44.208Z,5.50
2018-11-26T01:09:14.373Z,5.60
2018-11-26T01:11:44.745Z,5.60
2018-11-26T01:14:14.941Z,5.60
2018-11-26T01:16:45.186Z,5.60
2018-11-26T01:19:15.344Z,5.50
2018-11-26T01:21:45.549Z,5.60
2018-11-26T01:24:15.681Z,5.60
2018-11-26T01:26:45.829Z,5.70
2018-11-26T01:29:15.980Z,5.70
2018-11-26T01:31:46.133Z,5.70
2018-11-26T01:34:16.300Z,5.80
2018-11-26T01:36:46.447Z,5.80
2018-11-26T01:39:16.591Z,5.80
2018-11-26T01:41:46.711Z,5.80
2018-11-26T01:44:16.807Z,5.80
2018-11-26T01:46:46.940Z,5.70
2018-11-26T01:49:17.058Z,5.70
2018-11-26T01:51:47.193Z,5.70
2018-11-26T01:54:17.312Z,5.70
2018-11-26T01:56:47.467Z,5.70
2018-11-26T01:59:17.656Z,5.80
2018-11-26T02:01:47.809Z,5.70
2018-11-26T02:04:17.960Z,5.80
2018-11-26T02:06:48.148Z,5.70
2018-11-26T02:09:18.276Z,5.80
2018-11-26T02:11:48.418Z,5.80
2018-11-26T02:14:18.519Z,5.80
2018-11-26T02:19:52.021Z,5.70
2018-11-26T02:22:22.270Z,5.60
2018-11-26T02:24:52.562Z,5.60
2018-11-26T02:27:22.620Z,5.60
2018-11-26T02:29:52.784Z,5.50
2018-11-26T02:32:22.935Z,5.60
2018-11-26T02:34:53.090Z,5.50
2018-11-26T02:37:23.288Z,5.50
2018-11-26T02:39:53.416Z,5.40
2018-11-26T02:42:23.551Z,5.40
2018-11-26T02:44:53.755Z,5.40
2018-11-26T02:47:23.926Z,5.50
2018-11-26T02:49:54.079Z,5.40
2018-11-26T02:52:24.219Z,5.40
2018-11-26T02:54:54.368Z,5.40
2018-11-26T02:57:24.528Z,5.40
2018-11-26T02:59:54.717Z,5.40
2018-11-26T03:02:24.904Z,5.40
2018-11-26T03:04:55.103Z,5.40
2018-11-26T03:07:25.262Z,5.40
2018-11-26T03:09:55.554Z,5.50
2018-11-26T03:12:25.680Z,5.50
2018-11-26T03:14:55.949Z,5.60
2018-11-26T03:17:26.152Z,5.50
2018-11-26T03:19:56.300Z,5.50
2018-11-26T03:22:26.460Z,5.40
2018-11-26T03:24:56.606Z,5.40
2018-11-26T03:27:26.733Z,5.40
2018-11-26T03:29:56.893Z,5.40
2018-11-26T03:32:27.094Z,5.50
2018-11-26T03:34:57.286Z,5.40
2018-11-26T03:37:27.411Z,5.30
2018-11-26T03:39:57.586Z,5.30
2018-11-26T03:42:27.815Z,5.30
2018-11-26T03:44:57.954Z,5.30
2018-11-26T03:47:28.232Z,5.30
2018-11-26T03:49:58.466Z,5.30
2018-11-26T03:52:28.613Z,5.30
2018-11-26T03:54:58.793Z,5.30
2018-11-26T03:57:29.047Z,5.30
2018-11-26T03:59:59.169Z,5.30
2018-11-26T04:02:29.363Z,5.20
2018-11-26T04:04:59.524Z,5.30
2018-11-26T04:07:29.668Z,5.30
2018-11-26T04:09:59.879Z,5.30
2018-11-26T04:12:31.123Z,5.30
2018-11-26T04:15:01.227Z,5.40
2018-11-26T04:17:31.384Z,5.40
2018-11-26T04:20:01.514Z,5.50
2018-11-26T04:22:31.691Z,5.50
2018-11-26T04:25:01.942Z,5.50
2018-11-26T04:27:32.137Z,5.60
2018-11-26T04:30:02.301Z,5.70
2018-11-26T04:32:32.415Z,5.70
2018-11-26T04:35:02.543Z,5.80
2018-11-26T04:37:32.671Z,5.80
2018-11-26T04:40:02.978Z,5.80
2018-11-26T04:42:33.110Z,5.90
2018-11-26T04:45:03.270Z,5.80
2018-11-26T04:47:33.427Z,5.80
2018-11-26T04:50:03.542Z,5.80
2018-11-26T04:52:33.672Z,5.90
2018-11-26T04:55:03.933Z,5.90
2018-11-26T04:57:34.226Z,5.80
2018-11-26T05:00:05.505Z,5.90
2018-11-26T05:02:35.694Z,5.90
2018-11-26T05:05:06.515Z,6.00
2018-11-26T05:07:36.676Z,6.00
2018-11-26T05:10:09.172Z,6.10
2018-11-26T05:12:39.359Z,6.20
2018-11-26T05:15:14.053Z,6.30
2018-11-26T05:17:44.202Z,6.40
2018-11-26T05:20:15.010Z,6.50
2018-11-26T05:22:45.132Z,6.70
2018-11-26T05:25:15.248Z,6.90
2018-11-26T05:27:45.344Z,7.10
2018-11-26T05:30:15.565Z,7.20
2018-11-26T05:32:45.752Z,7.20
2018-11-26T05:35:16.792Z,7.30
2018-11-26T05:37:46.852Z,7.30
2018-11-26T05:40:17.052Z,7.30
2018-11-26T05:42:47.200Z,7.30
2018-11-26T05:45:17.741Z,7.30
2018-11-26T05:47:48.363Z,7.30
2018-11-26T05:50:18.604Z,7.30
2018-11-26T05:52:48.785Z,7.30
2018-11-26T05:55:19.006Z,7.30
2018-11-26T05:57:49.170Z,7.30
2018-11-26T06:03:11.512Z,7.20
2018-11-26T06:05:41.656Z,7.20
2018-11-26T06:08:11.892Z,7.20
2018-11-26T06:10:42.051Z,7.10
2018-11-26T06:13:12.266Z,7.10
2018-11-26T06:15:42.514Z,7.10
2018-11-26T06:18:12.876Z,7.20
2018-11-26T06:20:43.048Z,7.20
2018-11-26T06:23:13.522Z,7.30
2018-11-26T06:25:43.814Z,7.30
2018-11-26T06:28:14.094Z,7.40
2018-11-26T06:30:44.328Z,7.50
2018-11-26T06:33:14.560Z,7.50
2018-11-26T06:35:44.934Z,7.50
2018-11-26T06:38:15.180Z,7.40
2018-11-26T06:40:45.319Z,7.30
2018-11-26T06:43:15.622Z,7.00
2018-11-26T06:45:45.793Z,7.00
2018-11-26T06:48:15.951Z,7.00
2018-11-26T06:50:46.276Z,6.90
2018-11-26T06:53:23.424Z,6.80
2018-11-26T06:55:53.673Z,6.90
2018-11-26T06:58:23.830Z,6.90
2018-11-26T07:00:54.611Z,6.80
2018-11-26T07:03:24.719Z,6.80
2018-11-26T07:05:54.945Z,6.80
2018-11-26T07:08:25.085Z,6.70
2018-11-26T07:10:55.513Z,6.70
2018-11-26T07:13:25.741Z,6.70
2018-11-26T07:15:56.011Z,6.70
2018-11-26T07:18:26.220Z,6.70
2018-11-26T07:20:56.497Z,6.80
2018-11-26T07:23:26.756Z,6.90
2018-11-26T07:25:56.913Z,6.90
2018-11-26T07:28:27.153Z,7.00
2018-11-26T07:30:57.356Z,6.90
2018-11-26T07:33:27.569Z,6.90
2018-11-26T07:35:57.665Z,6.80
2018-11-26T07:38:27.805Z,6.60
2018-11-26T07:40:58.045Z,6.50
2018-11-26T07:43:28.247Z,6.30
2018-11-26T07:45:58.409Z,6.20
2018-11-26T07:48:28.544Z,6.20
2018-11-26T07:50:58.773Z,6.10
2018-11-26T07:53:28.946Z,6.10
2018-11-26T07:55:59.133Z,6.10
2018-11-26T07:58:29.257Z,6.00
2018-11-26T08:00:59.460Z,6.00
2018-11-26T08:03:29.583Z,6.00
2018-11-26T08:05:59.780Z,6.00
2018-11-26T08:08:29.977Z,6.00
2018-11-26T08:11:00.166Z,6.00
2018-11-26T08:13:30.342Z,5.90
2018-11-26T08:16:01.046Z,5.90
2018-11-26T08:18:31.166Z,5.80
2018-11-26T08:21:01.269Z,5.80
2018-11-26T08:23:31.416Z,5.90
2018-11-26T08:26:01.580Z,5.80
2018-11-26T08:28:31.683Z,5.80
2018-11-26T08:31:01.824Z,5.70
2018-11-26T08:33:32.023Z,5.80
2018-11-26T08:36:23.222Z,5.70
2018-11-26T08:38:58.775Z,5.70
2018-11-26T08:41:34.098Z,5.80
2018-11-26T08:44:09.787Z,5.70
2018-11-26T08:46:44.884Z,5.70
2018-11-26T08:49:22.937Z,5.70
2018-11-26T08:51:53.131Z,5.70
2018-11-26T08:54:23.421Z,5.70
2018-11-26T08:56:53.554Z,5.70
2018-11-26T08:59:23.708Z,5.70
2018-11-26T09:01:59.294Z,5.70
2018-11-26T09:04:34.400Z,5.70
2018-11-26T09:07:04.762Z,5.70
2018-11-26T09:09:34.849Z,5.70
2018-11-26T09:12:05.733Z,5.80
2018-11-26T09:14:35.846Z,5.70
2018-11-26T09:17:06.007Z,5.70
2018-11-26T09:19:36.128Z,5.70
2018-11-26T09:22:06.690Z,5.80
2018-11-26T09:24:36.835Z,5.80
2018-11-26T09:27:09.952Z,5.80
2018-11-26T09:29:37.327Z,5.80
2018-11-26T09:32:07.995Z,5.80
2018-11-26T09:34:38.220Z,5.80
2018-11-26T09:37:08.408Z,5.90
2018-11-26T09:39:38.540Z,5.90
2018-11-26T09:42:08.720Z,5.80
2018-11-26T09:44:38.843Z,5.80
2018-11-26T09:47:09.008Z,5.80
2018-11-26T09:49:39.194Z,5.80
2018-11-26T09:52:09.385Z,5.80
2018-11-26T09:54:39.492Z,5.90
2018-11-26T09:57:09.605Z,5.80
2018-11-26T09:59:39.793Z,5.80
2018-11-26T10:02:09.956Z,5.80
2018-11-26T10:04:40.079Z,5.90
2018-11-26T10:07:10.263Z,5.90
2018-11-26T10:09:40.476Z,6.00
2018-11-26T10:12:10.648Z,6.00
2018-11-26T10:14:40.945Z,6.00
2018-11-26T10:17:11.173Z,6.00
2018-11-26T10:19:41.453Z,6.00
2018-11-26T10:22:11.738Z,6.00
2018-11-26T10:24:41.986Z,6.10
2018-11-26T10:27:12.133Z,6.10
2018-11-26T10:29:42.446Z,6.00
2018-11-26T10:32:12.657Z,6.00
2018-11-26T10:34:42.777Z,6.00
2018-11-26T10:37:12.992Z,6.00
2018-11-26T10:39:44.079Z,6.00
2018-11-26T10:42:14.295Z,5.90
2018-11-26T10:44:44.440Z,5.90
2018-11-26T10:47:14.621Z,6.00
2018-11-26T10:49:44.756Z,5.90
2018-11-26T10:52:14.977Z,5.90
2018-11-26T10:54:45.488Z,5.90
2018-11-26T10:57:15.685Z,5.90
2018-11-26T10:59:45.824Z,5.90
2018-11-26T11:02:21.107Z,6.00
2018-11-26T11:04:51.265Z,6.10
2018-11-26T11:07:21.460Z,6.20
2018-11-26T11:09:51.604Z,6.20
2018-11-26T11:12:21.802Z,6.30
2018-11-26T11:14:51.942Z,6.40
2018-11-26T11:17:22.169Z,6.40
2018-11-26T11:19:52.841Z,6.40
2018-11-26T11:22:22.984Z,6.40
2018-11-26T11:24:53.157Z,6.30
2018-11-26T11:27:23.337Z,6.30
2018-11-26T11:29:53.481Z,6.30
2018-11-26T11:32:23.599Z,6.20
2018-11-26T11:34:53.757Z,6.20
2018-11-26T11:37:23.961Z,6.10
2018-11-26T11:39:54.096Z,5.90
2018-11-26T11:42:24.316Z,5.90
2018-11-26T11:44:54.466Z,6.00
2018-11-26T11:47:24.655Z,6.00
2018-11-26T11:49:55.530Z,6.00
2018-11-26T11:52:25.656Z,6.00
2018-11-26T11:54:55.857Z,6.00
2018-11-26T11:57:26.063Z,6.00
2018-11-26T11:59:56.283Z,6.00
2018-11-26T12:02:26.458Z,5.90
2018-11-26T12:04:56.641Z,5.90
2018-11-26T12:07:26.857Z,6.00
2018-11-26T12:09:57.082Z,6.00
2018-11-26T12:12:27.265Z,5.90
2018-11-26T12:14:57.488Z,5.90
2018-11-26T12:17:27.726Z,5.80
2018-11-26T12:19:57.867Z,5.80
2018-11-26T12:22:27.980Z,5.80
2018-11-26T12:24:58.149Z,5.80
2018-11-26T12:27:28.340Z,5.80
2018-11-26T12:29:58.441Z,5.80
2018-11-26T12:32:28.611Z,5.80
2018-11-26T12:34:58.761Z,5.90
2018-11-26T12:37:28.940Z,5.90
2018-11-26T12:39:59.173Z,5.80
2018-11-26T12:42:29.384Z,5.90
2018-11-26T12:44:59.519Z,5.80
2018-11-26T12:47:29.735Z,5.90
2018-11-26T12:49:59.903Z,5.90
2018-11-26T12:52:30.126Z,6.00
2018-11-26T12:55:00.316Z,6.00
2018-11-26T12:57:30.438Z,6.00
2018-11-26T13:00:00.584Z,6.00
2018-11-26T13:02:30.741Z,6.00
2018-11-26T13:05:00.899Z,5.90
2018-11-26T13:07:31.064Z,6.00
2018-11-26T13:10:01.186Z,6.00
2018-11-26T13:12:31.370Z,6.10
2018-11-26T13:15:01.509Z,6.10
2018-11-26T13:17:31.768Z,6.10
2018-11-26T13:20:01.922Z,6.20
2018-11-26T13:22:32.075Z,6.20
2018-11-26T13:25:02.221Z,6.20
2018-11-26T13:27:32.395Z,6.20
2018-11-26T13:30:02.610Z,6.20
2018-11-26T13:32:32.717Z,6.30
2018-11-26T13:35:02.846Z,6.40
2018-11-26T13:37:33.050Z,6.20
2018-11-26T13:40:03.158Z,6.20
2018-11-26T13:42:33.307Z,6.20
2018-11-26T13:45:03.524Z,6.20
2018-11-26T13:47:33.748Z,6.20
2018-11-26T13:50:04.057Z,6.20
2018-11-26T13:52:34.330Z,6.30
2018-11-26T13:55:04.862Z,6.20
2018-11-26T13:57:35.144Z,6.20
2018-11-26T14:00:07.975Z,6.30
2018-11-26T14:02:38.138Z,6.30
2018-11-26T14:05:12.620Z,6.30
2018-11-26T14:07:42.847Z,6.30
2018-11-26T14:10:17.579Z,6.30
2018-11-26T14:12:52.981Z,6.30
2018-11-26T14:15:23.223Z,6.20
2018-11-26T14:17:53.516Z,6.10
2018-11-26T14:20:23.686Z,6.10
2018-11-26T14:22:54.013Z,6.00
2018-11-26T14:25:24.244Z,5.90
2018-11-26T14:27:54.614Z,5.90
2018-11-26T14:30:27.489Z,5.90
2018-11-26T14:32:57.918Z,5.80
2018-11-26T14:35:28.213Z,5.80
2018-11-26T14:38:05.648Z,5.70
2018-11-26T14:40:44.847Z,5.80
2018-11-26T14:43:15.204Z,5.60
2018-11-26T14:45:45.496Z,5.60
2018-11-26T14:48:15.698Z,5.60
2018-11-26T14:50:45.920Z,5.60
2018-11-26T14:53:17.529Z,5.50
2018-11-26T14:55:47.918Z,5.60
2018-11-26T14:58:18.105Z,5.60
2018-11-26T15:00:48.695Z,5.60
2018-11-26T15:03:19.045Z,5.70
2018-11-26T15:05:49.329Z,5.70
2018-11-26T15:08:19.754Z,5.80
2018-11-26T15:10:50.062Z,5.80
2018-11-26T15:13:20.247Z,5.80
2018-11-26T15:15:50.363Z,5.90
2018-11-26T15:18:20.670Z,5.90
2018-11-26T15:20:51.002Z,5.90
2018-11-26T15:23:21.230Z,5.90
2018-11-26T15:25:51.832Z,6.00
2018-11-26T15:28:22.148Z,6.00
2018-11-26T15:30:52.320Z,6.00
2018-11-26T15:33:22.601Z,6.00
2018-11-26T15:35:52.855Z,6.00
2018-11-26T15:38:23.072Z,6.10
2018-11-26T15:40:53.390Z,6.10
2018-11-26T15:43:23.584Z,6.20
2018-11-26T15:45:53.945Z,6.10
2018-11-26T15:48:24.234Z,6.20
2018-11-26T15:50:54.506Z,6.10
2018-11-26T15:53:25.436Z,6.00
2018-11-26T15:55:56.357Z,5.80
2018-11-26T15:58:26.554Z,5.80
2018-11-26T16:00:56.821Z,5.70
2018-11-26T16:03:27.282Z,5.60
2018-11-26T16:05:57.931Z,5.60
2018-11-26T16:08:28.355Z,5.60
2018-11-26T16:10:58.581Z,5.70
2018-11-26T16:13:28.843Z,5.60
2018-11-26T16:15:58.917Z,5.60
2018-11-26T16:18:29.182Z,5.60
2018-11-26T16:20:59.472Z,5.60
2018-11-26T16:23:29.876Z,5.50
2018-11-26T16:26:00.118Z,5.60
2018-11-26T16:28:30.322Z,5.60
2018-11-26T16:31:00.484Z,5.50
2018-11-26T16:33:31.512Z,5.60
2018-11-26T16:36:01.762Z,5.60
2018-11-26T16:38:31.990Z,5.70
2018-11-26T16:41:02.240Z,5.80
2018-11-26T16:43:32.475Z,5.90
2018-11-26T16:46:02.635Z,6.00
2018-11-26T16:48:33.306Z,6.00
2018-11-26T16:51:03.471Z,6.10
2018-11-26T16:53:33.776Z,6.20
2018-11-26T16:56:03.922Z,6.30
2018-11-26T16:58:34.173Z,6.20
2018-11-26T17:01:04.321Z,6.20
2018-11-26T17:03:34.683Z,6.20
2018-11-26T17:06:05.175Z,6.20
2018-11-26T17:08:35.423Z,6.10
2018-11-26T17:11:05.602Z,6.10
2018-11-26T17:13:35.838Z,6.10
2018-11-26T17:16:06.111Z,6.00
2018-11-26T17:18:36.317Z,6.10
2018-11-26T17:21:06.980Z,6.00
2018-11-26T17:23:37.180Z,6.00
2018-11-26T17:26:07.374Z,6.00
2018-11-26T17:28:37.463Z,6.00
2018-11-26T17:31:07.829Z,5.90
2018-11-26T17:33:37.969Z,5.90
2018-11-26T17:36:08.068Z,5.90
2018-11-26T17:38:38.347Z,5.90
2018-11-26T17:41:08.526Z,5.80
2018-11-26T17:43:38.638Z,5.80
2018-11-26T17:46:08.817Z,5.80
2018-11-26T17:48:38.927Z,5.80
2018-11-26T17:51:09.091Z,5.80
2018-11-26T17:53:39.225Z,5.80
2018-11-26T17:56:09.389Z,5.80
2018-11-26T17:58:39.563Z,5.80
2018-11-26T18:01:20.100Z,5.80
2018-11-26T18:03:50.295Z,5.80
2018-11-26T18:06:20.503Z,5.80
2018-11-26T18:08:50.676Z,5.80
2018-11-26T18:11:20.901Z,5.80
2018-11-26T18:13:51.357Z,5.90
2018-11-26T18:16:22.033Z,5.90
2018-11-26T18:18:52.414Z,5.90
2018-11-26T18:21:22.720Z,5.90
2018-11-26T18:23:53.014Z,6.00
2018-11-26T18:26:23.226Z,6.00
2018-11-26T18:28:53.472Z,6.10
2018-11-26T18:31:23.625Z,6.20
2018-11-26T18:33:53.822Z,6.20
2018-11-26T18:36:24.050Z,6.30
2018-11-26T18:38:54.259Z,6.30
2018-11-26T18:41:24.475Z,6.30
2018-11-26T18:43:54.718Z,6.30
2018-11-26T18:46:25.160Z,6.30
2018-11-26T18:48:55.495Z,6.40
2018-11-26T18:51:25.656Z,6.40
2018-11-26T18:53:55.825Z,6.50
2018-11-26T18:56:25.970Z,6.60
2018-11-26T18:58:56.199Z,6.70
2018-11-26T19:01:26.361Z,6.80
2018-11-26T19:03:56.511Z,6.90
2018-11-26T19:06:26.670Z,7.00
2018-11-26T19:08:56.812Z,7.20
2018-11-26T19:11:27.030Z,7.30
2018-11-26T19:14:07.070Z,7.40
2018-11-26T19:16:42.483Z,7.40
2018-11-26T19:19:12.712Z,7.50
2018-11-26T19:21:42.866Z,7.50
2018-11-26T19:24:13.102Z,7.60
2018-11-26T19:26:43.649Z,7.60
2018-11-26T19:29:13.881Z,7.60
2018-11-26T19:31:44.592Z,7.60
2018-11-26T19:34:14.798Z,7.50
2018-11-26T19:36:44.979Z,7.60
2018-11-26T19:39:15.399Z,7.60
2018-11-26T19:41:45.571Z,7.50
2018-11-26T19:44:15.723Z,7.40
2018-11-26T19:46:45.860Z,7.40
2018-11-26T19:49:16.029Z,7.30
2018-11-26T19:51:46.252Z,7.30
2018-11-26T19:54:16.472Z,7.20
2018-11-26T19:56:46.695Z,7.10
2018-11-26T19:59:16.978Z,7.10
2018-11-26T20:01:47.148Z,7.10
2018-11-26T20:04:30.281Z,7.10
2018-11-26T20:07:00.521Z,7.20
2018-11-26T20:09:30.663Z,7.10
2018-11-26T20:12:00.892Z,7.10
2018-11-26T20:14:31.023Z,7.10
2018-11-26T20:17:01.263Z,7.00
2018-11-26T20:19:31.498Z,7.00
2018-11-26T20:22:01.849Z,7.00
2018-11-26T20:24:31.988Z,7.00
2018-11-26T20:27:02.236Z,7.00
2018-11-26T20:29:32.441Z,6.90
2018-11-26T20:32:02.692Z,6.90
2018-11-26T20:34:32.956Z,6.80
2018-11-26T20:37:03.181Z,6.80
2018-11-26T20:39:33.343Z,6.70
2018-11-26T20:42:03.499Z,6.70
2018-11-26T20:44:33.718Z,6.70
2018-11-26T20:47:03.866Z,6.70
2018-11-26T20:49:34.034Z,6.60
2018-11-26T20:52:04.292Z,6.60
2018-11-26T20:54:34.611Z,6.50
2018-11-26T20:57:04.740Z,6.50
2018-11-26T20:59:34.965Z,6.40
2018-11-26T21:02:05.174Z,6.40
2018-11-26T21:04:35.349Z,6.30
2018-11-26T21:07:06.106Z,6.40
2018-11-26T21:09:36.392Z,6.40
2018-11-26T21:12:06.671Z,6.40
2018-11-26T21:14:36.874Z,6.40
2018-11-26T21:17:07.348Z,6.40
2018-11-26T21:19:37.652Z,6.30
2018-11-26T21:22:07.824Z,6.40
2018-11-26T21:24:38.171Z,6.30
2018-11-26T21:27:08.411Z,6.30
2018-11-26T21:29:38.612Z,6.30
2018-11-26T21:32:08.834Z,6.30
2018-11-26T21:34:39.698Z,6.40
2018-11-26T21:37:09.841Z,6.40
2018-11-26T21:39:40.009Z,6.40
2018-11-26T21:42:10.241Z,6.40
2018-11-26T21:44:40.521Z,6.50
2018-11-26T21:47:10.680Z,6.50
2018-11-26T21:49:40.876Z,6.50
2018-11-26T21:52:11.104Z,6.40
2018-11-26T21:54:41.337Z,6.40
2018-11-26T21:57:11.523Z,6.40
2018-11-26T21:59:41.751Z,6.40
2018-11-26T22:02:12.023Z,6.40
2018-11-26T22:04:42.201Z,6.40
2018-11-26T22:07:12.522Z,6.40
2018-11-26T22:09:42.731Z,6.40
2018-11-26T22:12:12.929Z,6.40
2018-11-26T22:14:43.150Z,6.40
2018-11-26T22:17:13.351Z,6.40
2018-11-26T22:19:43.521Z,6.50
2018-11-26T22:22:13.713Z,6.50
2018-11-26T22:24:43.914Z,6.50
2018-11-26T22:27:14.117Z,6.50
2018-11-26T22:29:44.359Z,6.50
2018-11-26T22:32:14.555Z,6.40
2018-11-26T22:34:44.779Z,6.30
2018-11-26T22:37:14.900Z,6.30
2018-11-26T22:39:45.149Z,6.30
2018-11-26T22:42:15.269Z,6.20
2018-11-26T22:44:45.439Z,6.30
2018-11-26T22:47:15.689Z,6.30
2018-11-26T22:49:45.935Z,6.20
2018-11-26T22:52:16.104Z,6.20
2018-11-26T22:54:46.321Z,6.20
2018-11-26T22:57:16.573Z,6.20
2018-11-26T22:59:46.701Z,6.20
2018-11-26T23:02:17.049Z,6.30
2018-11-26T23:04:47.220Z,6.30
2018-11-26T23:07:17.511Z,6.20
2018-11-26T23:09:47.770Z,6.20
2018-11-26T23:12:18.033Z,6.20
2018-11-26T23:14:48.285Z,6.20
2018-11-26T23:17:18.541Z,6.20
2018-11-26T23:19:48.869Z,6.20
2018-11-26T23:22:19.002Z,6.20
2018-11-26T23:24:49.310Z,6.20
2018-11-26T23:27:19.575Z,6.30
2018-11-26T23:29:49.794Z,6.30
2018-11-26T23:32:20.241Z,6.30
2018-11-26T23:34:50.469Z,6.30
2018-11-26T23:37:20.709Z,6.30
2018-11-26T23:39:50.849Z,6.30
2018-11-26T23:42:20.997Z,6.30
2018-11-26T23:44:51.259Z,6.30
2018-11-26T23:47:21.399Z,6.20
2018-11-26T23:49:51.515Z,6.20
2018-11-26T23:52:21.765Z,6.20
2018-11-26T23:54:51.937Z,6.30
2018-11-26T23:57:22.075Z,6.30
2018-11-26T23:59:52.289Z,6.30
